Time;durP1;ratioP1;P1;durP2;ratioP2;P2;SDS_P1;SDS_P2;PMS_P1;PMS_P2;Temp;Humidity;BMP_temperature;BMP_pressure;BME280_temperature;BME280_humidity;BME280_pressure;Samples;Min_cycle;Max_cycle;Signal;HPM_P1;HPM_P2
2022/05/27 00:00:44;;;;;;;29.40;2.97;;;40.40;20.30;;;;;;5047681;28;20097;-70
2022/05/27 00:03:12;;;;;;;22.40;3.28;;;40.40;20.60;;;;;;5047538;28;20025;-71
2022/05/27 00:05:38;;;;;;;19.70;3.80;;;40.50;20.70;;;;;;5063607;28;20451;-69
2022/05/27 00:08:05;;;;;;;33.05;3.67;;;40.40;20.30;;;;;;5063654;28;20036;-68
2022/05/27 00:10:32;;;;;;;18.13;3.47;;;40.30;20.00;;;;;;5025730;28;20084;-68
2022/05/27 00:12:58;;;;;;;22.50;2.92;;;40.20;20.30;;;;;;5025421;28;20025;-69
2022/05/27 00:15:25;;;;;;;26.25;3.47;;;40.10;19.80;;;;;;5010430;28;20129;-69
2022/05/27 00:17:51;;;;;;;25.38;3.25;;;40.20;20.10;;;;;;5028478;28;20028;-68
2022/05/27 00:20:18;;;;;;;30.35;4.68;;;40.10;20.30;;;;;;5013942;28;20044;-67
2022/05/27 00:22:44;;;;;;;38.78;5.07;;;40.00;20.00;;;;;;5031838;28;20026;-67
2022/05/27 00:25:10;;;;;;;38.90;4.85;;;39.80;19.80;;;;;;5030618;28;20036;-69
2022/05/27 00:27:37;;;;;;;46.67;4.72;;;39.70;20.40;;;;;;5030307;28;20053;-69
2022/05/27 00:30:04;;;;;;;42.75;5.90;;;39.90;19.90;;;;;;5030892;28;20080;-66
2022/05/27 00:32:31;;;;;;;68.82;7.90;;;39.70;20.00;;;;;;5030387;28;20058;-67
2022/05/27 00:34:57;;;;;;;67.63;7.53;;;39.60;19.70;;;;;;5030244;28;20071;-67
2022/05/27 00:37:23;;;;;;;57.10;7.00;;;39.40;19.30;;;;;;5031702;28;20058;-68
2022/05/27 00:39:50;;;;;;;68.78;7.50;;;39.30;19.60;;;;;;5046424;28;20045;-67
2022/05/27 00:42:16;;;;;;;62.22;7.88;;;39.10;19.20;;;;;;5031442;28;20035;-67
2022/05/27 00:44:43;;;;;;;49.40;6.50;;;39.10;19.40;;;;;;5029770;28;20057;-66
2022/05/27 00:47:14;;;;;;;69.13;7.70;;;39.20;19.30;;;;;;5030899;28;20052;-70
2022/05/27 00:49:55;;;;;;;59.88;5.95;;;39.00;18.20;;;;;;5029460;28;20050;-68
2022/05/27 00:52:27;;;;;;;76.55;5.78;;;39.00;17.90;;;;;;5046062;28;20157;-67
2022/05/27 00:54:53;;;;;;;63.83;6.65;;;39.00;18.60;;;;;;5030166;28;20093;-69
2022/05/27 00:57:35;;;;;;;30.05;4.80;;;38.90;17.80;;;;;;5029734;28;20036;-67
2022/05/27 01:00:09;;;;;;;49.65;6.05;;;38.80;18.00;;;;;;5031849;28;20137;-67
2022/05/27 01:02:37;;;;;;;50.28;5.65;;;38.70;17.70;;;;;;5030628;28;20055;-68
2022/05/27 01:05:06;;;;;;;32.10;4.90;;;38.50;17.60;;;;;;5013382;28;20054;-65
2022/05/27 01:07:32;;;;;;;40.13;4.80;;;38.40;17.60;;;;;;5032367;28;20051;-67
2022/05/27 01:10:01;;;;;;;27.95;3.55;;;38.30;17.70;;;;;;5030242;28;20099;-66
2022/05/27 01:12:30;;;;;;;31.73;3.40;;;38.30;17.70;;;;;;5012490;28;20064;-67
2022/05/27 01:15:15;;;;;;;29.50;2.50;;;38.30;17.70;;;;;;5030805;28;20551;-67
2022/05/27 01:17:56;;;;;;;30.67;3.38;;;38.30;17.90;;;;;;5029873;28;20533;-68
2022/05/27 01:20:40;;;;;;;29.88;3.28;;;38.20;17.90;;;;;;5036251;28;20447;-70
2022/05/27 01:23:43;;;;;;;32.05;3.20;;;38.10;18.00;;;;;;5030000;28;20138;-67
2022/05/27 01:26:34;;;;;;;35.03;3.28;;;38.00;17.90;;;;;;5029775;28;20059;-69
2022/05/27 01:29:10;;;;;;;27.52;2.90;;;37.80;17.60;;;;;;5032207;28;20052;-66
2022/05/27 01:31:36;;;;;;;28.42;3.83;;;37.70;17.70;;;;;;5029203;28;20046;-68
2022/05/27 01:34:09;;;;;;;38.45;3.60;;;37.60;17.40;;;;;;5045279;28;20060;-69
2022/05/27 01:36:38;;;;;;;27.65;4.00;;;37.60;17.30;;;;;;5029696;28;20149;-68
2022/05/27 01:39:27;;;;;;;29.77;3.33;;;37.50;17.00;;;;;;5030294;28;20071;-68
2022/05/27 01:42:28;;;;;;;38.17;3.33;;;37.40;17.10;;;;;;5047385;28;20069;-68
2022/05/27 01:45:01;;;;;;;39.30;4.57;;;37.30;17.50;;;;;;5045711;28;20068;-68
2022/05/27 01:47:30;;;;;;;37.90;3.60;;;37.50;17.90;;;;;;5028583;28;20109;-69
2022/05/27 01:50:22;;;;;;;31.70;3.35;;;37.50;18.10;;;;;;5030788;28;20523;-69
2022/05/27 01:53:30;;;;;;;47.85;3.75;;;37.50;18.50;;;;;;5011833;28;20103;-69
2022/05/27 01:56:08;;;;;;;31.08;3.83;;;37.20;19.30;;;;;;5045497;28;20487;-68
2022/05/27 01:59:00;;;;;;;26.85;3.03;;;36.80;20.00;;;;;;5031242;28;20049;-68
2022/05/27 02:02:12;;;;;;;29.13;3.08;;;36.70;20.60;;;;;;5015311;28;20054;-67
2022/05/27 02:04:41;;;;;;;18.08;2.53;;;36.50;21.00;;;;;;5029566;28;20388;-67
2022/05/27 02:07:23;;;;;;;9.30;2.42;;;36.40;21.10;;;;;;5030723;28;20529;-69
2022/05/27 02:10:24;;;;;;;19.17;3.45;;;36.30;21.40;;;;;;5013759;28;20536;-68
2022/05/27 02:13:07;;;;;;;24.52;3.30;;;36.20;21.40;;;;;;5044947;28;20061;-68
2022/05/27 02:15:42;;;;;;;20.80;4.45;;;36.10;21.90;;;;;;5012951;28;21271;-70
2022/05/27 02:18:23;;;;;;;20.73;4.25;;;35.90;22.30;;;;;;5028604;28;20050;-68
2022/05/27 02:20:57;;;;;;;22.48;3.30;;;35.80;22.70;;;;;;5028736;28;20402;-68
2022/05/27 02:23:36;;;;;;;27.45;3.47;;;35.70;23.00;;;;;;5044529;28;20540;-69
2022/05/27 02:26:06;;;;;;;29.05;3.25;;;35.60;23.40;;;;;;5029138;28;20091;-68
2022/05/27 02:28:39;;;;;;;24.08;3.28;;;35.60;23.80;;;;;;5028108;28;20071;-67
2022/05/27 02:31:11;;;;;;;20.70;3.53;;;35.40;24.10;;;;;;5045193;28;20077;-66
2022/05/27 02:36:56;;;;;;;25.52;3.38;;;35.30;24.60;;;;;;5017001;28;20135;-68
2022/05/27 02:39:23;;;;;;;21.50;2.90;;;35.10;24.70;;;;;;5045596;28;20092;-66
2022/05/27 02:42:13;;;;;;;26.10;3.50;;;35.00;24.90;;;;;;5029409;28;20124;-67
2022/05/27 02:44:50;;;;;;;17.40;3.72;;;34.90;24.80;;;;;;5027079;28;20133;-69
2022/05/27 02:47:47;;;;;;;29.92;3.22;;;34.80;25.10;;;;;;5028246;28;20079;-66
2022/05/27 02:50:27;;;;;;;;;;;34.80;25.50;;;;;;5029463;28;20095;-69
2022/05/27 02:53:30;;;;;;;26.10;3.22;;;34.60;25.90;;;;;;5044604;28;19957;-69
2022/05/27 02:56:12;;;;;;;17.27;3.60;;;34.50;26.10;;;;;;5027668;28;20141;-68
2022/05/27 02:58:38;;;;;;;22.02;3.30;;;34.40;26.20;;;;;;5028763;28;20071;-68
2022/05/27 03:01:05;;;;;;;26.02;3.70;;;34.20;26.30;;;;;;5012626;28;20062;-69
2022/05/27 03:03:32;;;;;;;39.95;4.47;;;34.20;26.40;;;;;;5029574;28;20064;-70
2022/05/27 03:06:26;;;;;;;32.80;4.00;;;34.20;27.10;;;;;;5028569;28;20118;-67
2022/05/27 03:09:36;;;;;;;32.67;4.10;;;34.10;27.00;;;;;;5029527;28;20568;-68
2022/05/27 03:12:25;;;;;;;19.08;3.10;;;34.00;27.10;;;;;;5017440;28;20091;-68
2022/05/27 03:15:07;;;;;;;26.20;4.78;;;33.80;27.30;;;;;;5026010;28;20582;-67
2022/05/27 03:18:29;;;;;;;28.08;4.32;;;33.70;27.70;;;;;;5028043;28;20079;-68
2022/05/27 03:21:29;;;;;;;30.27;4.15;;;33.60;27.80;;;;;;5006741;28;20095;-67
2022/05/27 03:24:14;;;;;;;29.73;4.30;;;33.50;28.10;;;;;;4991294;28;20066;-68
2022/05/27 03:27:07;;;;;;;40.17;3.70;;;33.40;28.20;;;;;;4990714;28;20061;-68
2022/05/27 03:29:53;;;;;;;22.00;3.78;;;33.30;28.20;;;;;;5007450;28;20429;-68
2022/05/27 03:32:40;;;;;;;25.97;3.07;;;33.30;28.40;;;;;;4990496;28;20095;-68
2022/05/27 03:35:09;;;;;;;23.70;3.55;;;33.20;28.50;;;;;;5006152;28;20324;-67
2022/05/27 03:38:05;;;;;;;25.55;3.60;;;33.20;28.90;;;;;;4990954;28;20520;-68
2022/05/27 03:40:47;;;;;;;30.75;4.53;;;33.00;29.40;;;;;;4930443;29;20132;-67
2022/05/27 03:43:14;;;;;;;24.77;4.10;;;32.90;29.70;;;;;;4913970;29;20234;-67
2022/05/27 03:45:55;;;;;;;31.92;4.28;;;32.90;30.10;;;;;;4930054;29;20086;-68
2022/05/27 03:48:24;;;;;;;30.63;4.00;;;32.80;30.40;;;;;;4928699;29;20121;-68
2022/05/27 03:50:53;;;;;;;35.42;4.05;;;32.70;30.70;;;;;;4929981;29;20155;-68
2022/05/27 03:53:20;;;;;;;26.27;4.68;;;32.70;30.70;;;;;;4915177;29;20287;-67
2022/05/27 03:55:48;;;;;;;29.85;3.70;;;32.60;31.20;;;;;;4954249;29;20086;-70
2022/05/27 03:58:15;;;;;;;27.23;4.03;;;32.50;31.40;;;;;;4953536;29;20114;-68
2022/05/27 04:00:42;;;;;;;25.80;7.68;;;32.40;31.60;;;;;;4936287;29;20069;-67
2022/05/27 04:03:12;;;;;;;36.30;13.23;;;32.40;32.00;;;;;;4952205;29;20443;-68
2022/05/27 04:05:40;;;;;;;45.67;17.38;;;32.30;32.50;;;;;;4952898;28;20085;-66
2022/05/27 04:08:07;;;;;;;55.85;19.83;;;32.10;32.80;;;;;;4952625;29;20190;-67
2022/05/27 04:10:33;;;;;;;54.08;12.27;;;32.10;33.20;;;;;;4952585;29;20200;-68
2022/05/27 04:13:00;;;;;;;40.63;11.38;;;32.00;33.60;;;;;;4953213;29;20080;-67
2022/05/27 04:15:26;;;;;;;36.92;12.48;;;32.00;33.70;;;;;;4935704;29;20495;-67
2022/05/27 04:17:52;;;;;;;45.10;11.30;;;31.90;33.60;;;;;;5024609;28;20085;-68
2022/05/27 04:20:20;;;;;;;29.73;8.40;;;31.90;33.90;;;;;;5048184;28;20085;-68
2022/05/27 04:22:47;;;;;;;31.83;6.13;;;31.80;34.10;;;;;;5034314;28;20518;-69
2022/05/27 04:25:15;;;;;;;39.72;7.65;;;31.80;34.20;;;;;;5032374;28;20530;-66
2022/05/27 04:27:41;;;;;;;24.90;6.43;;;31.70;35.10;;;;;;5014773;28;20546;-67
2022/05/27 04:30:09;;;;;;;28.00;5.30;;;31.60;34.60;;;;;;5030889;28;20079;-67
2022/05/27 04:32:35;;;;;;;29.10;4.70;;;31.60;34.80;;;;;;5031881;28;20069;-68
2022/05/27 04:35:02;;;;;;;32.45;5.22;;;31.50;34.90;;;;;;5029580;28;20089;-67
2022/05/27 04:37:28;;;;;;;30.80;4.25;;;31.40;34.90;;;;;;5017752;28;20083;-67
2022/05/27 04:39:55;;;;;;;22.92;4.13;;;31.40;35.70;;;;;;5030911;28;20076;-67
2022/05/27 04:42:21;;;;;;;22.05;4.07;;;31.40;35.30;;;;;;5031976;28;20098;-69
2022/05/27 04:44:48;;;;;;;25.35;4.15;;;31.40;35.40;;;;;;5030464;28;20166;-67
2022/05/27 04:47:14;;;;;;;19.67;3.33;;;31.30;36.20;;;;;;5030571;28;20080;-70
2022/05/27 04:49:56;;;;;;;31.02;4.25;;;31.20;35.80;;;;;;5031652;28;20085;-66
2022/05/27 04:52:26;;;;;;;21.08;3.92;;;31.10;35.90;;;;;;5030828;28;20079;-67
2022/05/27 04:54:53;;;;;;;27.10;4.20;;;31.10;36.10;;;;;;5031227;28;20088;-67
2022/05/27 04:57:27;;;;;;;42.47;13.35;;;31.10;36.10;;;;;;5050104;28;20125;-67
2022/05/27 04:59:53;;;;;;;17.20;5.88;;;31.10;36.40;;;;;;5032683;28;20072;-68
2022/05/27 05:02:21;;;;;;;32.47;20.73;;;31.00;36.60;;;;;;5031128;28;20527;-65
2022/05/27 05:04:50;;;;;;;17.85;5.35;;;30.90;36.80;;;;;;5031797;28;20096;-68
2022/05/27 05:07:18;;;;;;;19.38;3.75;;;30.90;37.40;;;;;;5030557;28;20081;-67
2022/05/27 05:09:45;;;;;;;13.75;3.22;;;30.90;37.40;;;;;;5030919;28;20095;-69
2022/05/27 05:12:13;;;;;;;13.23;3.63;;;30.70;37.20;;;;;;5030885;28;20116;-69
2022/05/27 05:14:40;;;;;;;17.02;3.10;;;30.60;37.80;;;;;;5046734;28;20092;-68
2022/05/27 05:17:08;;;;;;;16.75;3.92;;;30.50;38.30;;;;;;5045142;28;20119;-72
2022/05/27 05:19:35;;;;;;;18.88;3.97;;;30.50;38.50;;;;;;5046772;28;20542;-70
2022/05/27 05:22:01;;;;;;;16.48;3.47;;;30.50;38.80;;;;;;5046898;28;20160;-69
2022/05/27 05:24:28;;;;;;;21.48;3.38;;;30.40;39.00;;;;;;5046817;28;20091;-69
2022/05/27 05:26:54;;;;;;;17.63;3.88;;;30.40;38.90;;;;;;5029749;28;20445;-67
2022/05/27 05:29:21;;;;;;;19.60;3.50;;;30.30;38.70;;;;;;5030355;28;20089;-68
2022/05/27 05:31:47;;;;;;;18.67;3.85;;;30.20;39.10;;;;;;5028802;28;20559;-68
2022/05/27 05:34:13;;;;;;;21.00;4.00;;;30.10;39.70;;;;;;5046531;28;20084;-68
2022/05/27 05:36:40;;;;;;;18.08;4.18;;;30.10;39.90;;;;;;5030342;28;20434;-68
2022/05/27 05:39:07;;;;;;;20.98;3.65;;;30.20;39.80;;;;;;5046637;28;20470;-69
2022/05/27 05:41:36;;;;;;;14.75;3.90;;;30.20;39.60;;;;;;5029021;28;20506;-68
2022/05/27 05:44:05;;;;;;;21.65;3.55;;;30.20;39.70;;;;;;5028658;28;20107;-67
2022/05/27 05:46:37;;;;;;;27.45;4.40;;;30.10;39.90;;;;;;5029612;28;20096;-68
2022/05/27 05:49:05;;;;;;;21.75;4.57;;;30.10;40.00;;;;;;5045175;28;20091;-68
2022/05/27 05:51:31;;;;;;;24.58;4.90;;;30.10;40.30;;;;;;5012936;28;20127;-67
2022/05/27 05:53:58;;;;;;;32.47;5.97;;;30.00;40.40;;;;;;5028464;28;20219;-67
2022/05/27 05:56:24;;;;;;;24.13;4.70;;;29.90;40.80;;;;;;5045377;28;20093;-68
2022/05/27 05:58:51;;;;;;;34.25;5.43;;;29.80;41.30;;;;;;5028611;28;20069;-66
2022/05/27 06:01:18;;;;;;;37.83;5.35;;;29.80;41.80;;;;;;5029901;28;20073;-68
2022/05/27 06:03:44;;;;;;;30.70;5.50;;;29.60;42.20;;;;;;5027401;28;20073;-67
2022/05/27 06:06:11;;;;;;;29.95;4.63;;;29.60;42.50;;;;;;5028009;28;20138;-67
2022/05/27 06:08:37;;;;;;;25.98;4.53;;;29.60;42.70;;;;;;5029139;28;20613;-68
2022/05/27 06:11:07;;;;;;;39.03;5.35;;;29.60;42.90;;;;;;5046067;28;20219;-67
2022/05/27 06:13:35;;;;;;;27.48;4.80;;;29.50;43.30;;;;;;5044515;28;20108;-67
2022/05/27 06:16:03;;;;;;;35.60;5.15;;;29.40;43.60;;;;;;5027364;28;20109;-67
2022/05/27 06:18:30;;;;;;;29.33;4.93;;;29.40;43.80;;;;;;5045810;28;20415;-66
2022/05/27 06:20:56;;;;;;;19.00;4.47;;;29.40;44.30;;;;;;5046225;28;20081;-67
2022/05/27 06:23:23;;;;;;;31.70;5.40;;;29.30;44.50;;;;;;5029612;28;20530;-67
2022/05/27 06:25:57;;;;;;;22.80;4.45;;;29.30;44.70;;;;;;5030467;28;20445;-67
2022/05/27 06:36:40;;;;;;;28.73;5.10;;;29.20;44.70;;;;;;5029344;28;20095;-66
2022/05/27 06:39:07;;;;;;;25.65;5.03;;;29.10;44.80;;;;;;5032522;28;20077;-66
2022/05/27 06:41:35;;;;;;;28.98;4.60;;;28.90;44.70;;;;;;5027714;28;20519;-66
2022/05/27 06:44:02;;;;;;;23.85;4.45;;;28.90;44.90;;;;;;5047223;28;20168;-66
2022/05/27 06:46:30;;;;;;;21.60;4.20;;;28.90;44.80;;;;;;5030838;28;20130;-66
2022/05/27 06:48:56;;;;;;;28.40;4.78;;;28.70;45.10;;;;;;5048136;28;20085;-66
2022/05/27 06:51:23;;;;;;;24.40;4.05;;;28.70;45.40;;;;;;5046367;28;20592;-68
2022/05/27 06:53:49;;;;;;;19.70;4.00;;;28.50;45.60;;;;;;5028181;28;20084;-67
2022/05/27 06:56:16;;;;;;;24.08;4.22;;;28.50;46.00;;;;;;5029778;28;20163;-69
2022/05/27 06:58:43;;;;;;;19.40;3.78;;;28.50;46.10;;;;;;5030874;28;20068;-67
2022/05/27 07:01:10;;;;;;;31.55;4.47;;;28.40;46.10;;;;;;5031619;28;20065;-69
2022/05/27 07:03:37;;;;;;;15.88;4.07;;;28.40;45.90;;;;;;5047933;28;20156;-67
2022/05/27 07:06:09;;;;;;;21.85;3.50;;;28.30;46.20;;;;;;5045713;28;20072;-67
2022/05/27 07:08:36;;;;;;;27.85;5.07;;;28.30;45.80;;;;;;5012248;28;20073;-67
2022/05/27 07:11:03;;;;;;;24.10;4.88;;;28.30;45.90;;;;;;5031301;28;20073;-69
2022/05/27 07:13:31;;;;;;;25.33;4.32;;;28.30;45.90;;;;;;5028878;28;20077;-67
2022/05/27 07:15:57;;;;;;;25.38;4.00;;;28.30;45.70;;;;;;5045849;28;20180;-67
2022/05/27 07:18:24;;;;;;;17.65;3.88;;;28.30;45.30;;;;;;5028991;28;20077;-67
2022/05/27 07:20:50;;;;;;;19.27;3.67;;;28.30;45.00;;;;;;5031489;28;20526;-66
2022/05/27 07:23:19;;;;;;;20.98;4.20;;;28.30;44.30;;;;;;5031353;28;20076;-66
2022/05/27 07:25:46;;;;;;;14.45;3.60;;;28.20;43.70;;;;;;5044575;28;20081;-66
2022/05/27 07:28:13;;;;;;;21.20;4.30;;;28.20;43.40;;;;;;5033740;28;20151;-65
2022/05/27 07:30:40;;;;;;;16.08;3.50;;;28.20;43.40;;;;;;5034943;28;20069;-67
2022/05/27 07:33:06;;;;;;;13.25;3.70;;;28.10;43.30;;;;;;5051969;28;20084;-66
2022/05/27 07:35:32;;;;;;;12.13;3.10;;;28.10;42.80;;;;;;5033638;28;20081;-66
2022/05/27 07:37:59;;;;;;;16.17;3.30;;;28.10;42.80;;;;;;5033127;28;20166;-67
2022/05/27 07:40:25;;;;;;;18.50;3.35;;;28.10;42.80;;;;;;5036236;28;20080;-67
2022/05/27 07:42:52;;;;;;;30.23;3.67;;;28.10;42.70;;;;;;5034080;28;20130;-67
2022/05/27 07:45:21;;;;;;;22.30;3.65;;;28.00;42.60;;;;;;5050083;28;20143;-67
2022/05/27 07:47:48;;;;;;;18.10;3.53;;;28.00;42.70;;;;;;5034334;28;20076;-68
2022/05/27 07:50:14;;;;;;;39.15;4.30;;;28.00;42.50;;;;;;5033698;28;20139;-66
2022/05/27 07:52:42;;;;;;;24.42;4.18;;;27.90;42.00;;;;;;5032683;28;20516;-66
2022/05/27 07:55:09;;;;;;;84.55;6.63;;;27.80;42.20;;;;;;5031706;28;20093;-68
2022/05/27 07:57:44;;;;;;;23.67;4.60;;;27.80;42.40;;;;;;5033987;28;20088;-67
2022/05/27 08:00:20;;;;;;;18.92;4.55;;;27.90;42.90;;;;;;5051966;28;20559;-67
2022/05/27 08:02:47;;;;;;;73.95;8.48;;;27.90;42.50;;;;;;5050544;28;20091;-68
2022/05/27 08:05:19;;;;;;;30.77;4.15;;;27.80;42.30;;;;;;5030849;28;20100;-69
2022/05/27 08:07:47;;;;;;;27.38;3.90;;;27.80;42.10;;;;;;5034627;28;20115;-68
2022/05/27 08:10:16;;;;;;;120.38;10.63;;;27.70;42.00;;;;;;5033698;28;20116;-70
2022/05/27 08:12:43;;;;;;;134.18;11.15;;;27.70;42.10;;;;;;5031956;28;20096;-67
2022/05/27 08:15:10;;;;;;;42.20;5.60;;;27.70;41.90;;;;;;5050243;28;20084;-67
2022/05/27 08:17:37;;;;;;;28.75;3.97;;;27.70;42.30;;;;;;5034783;28;20411;-67
2022/05/27 08:20:06;;;;;;;12.95;2.85;;;27.60;42.20;;;;;;5030870;28;20101;-68
2022/05/27 08:22:33;;;;;;;15.55;3.30;;;27.60;41.90;;;;;;5034212;28;20534;-68
2022/05/27 08:25:00;;;;;;;17.33;3.63;;;27.60;41.80;;;;;;5034004;28;20515;-68
2022/05/27 08:27:26;;;;;;;16.55;3.35;;;27.60;41.80;;;;;;5033729;28;20523;-68
2022/05/27 08:29:52;;;;;;;16.48;3.38;;;27.50;41.80;;;;;;5035201;28;20109;-67
2022/05/27 08:32:19;;;;;;;21.65;4.03;;;27.50;41.80;;;;;;5049231;28;20103;-68
2022/05/27 08:40:37;;;;;;;20.42;4.15;;;27.90;41.90;;;;;;5033568;28;20115;-70
2022/05/27 08:43:33;;;;;;;20.52;4.25;;;28.20;41.50;;;;;;5034900;28;20085;-73
2022/05/27 08:46:17;;;;;;;21.33;3.42;;;28.00;40.60;;;;;;5047328;28;20184;-70
2022/05/27 08:48:47;;;;;;;20.02;3.42;;;28.20;40.50;;;;;;5032201;28;20073;-70
2022/05/27 08:51:25;;;;;;;16.58;4.05;;;28.40;40.40;;;;;;5046864;28;20116;-69
2022/05/27 08:54:00;;;;;;;19.10;4.63;;;28.50;40.60;;;;;;5030315;28;20076;-68
2022/05/27 08:59:53;;;;;;;20.83;3.78;;;28.50;39.70;;;;;;5031646;28;20080;-69
2022/05/27 09:02:36;;;;;;;19.38;3.33;;;28.70;39.50;;;;;;5030067;28;20084;-69
2022/05/27 09:05:16;;;;;;;29.40;4.13;;;28.70;39.50;;;;;;5013209;28;20127;-68
2022/05/27 09:07:55;;;;;;;20.15;4.15;;;28.80;39.60;;;;;;5029844;28;21083;-69
2022/05/27 09:10:56;;;;;;;20.17;3.40;;;28.70;39.50;;;;;;5014393;28;20088;-69
2022/05/27 09:13:43;;;;;;;13.98;3.70;;;28.60;39.90;;;;;;5028304;28;20096;-71
2022/05/27 09:16:37;;;;;;;18.23;4.28;;;28.40;40.70;;;;;;5014111;28;20111;-71
2022/05/27 09:19:13;;;;;;;19.20;4.68;;;28.50;41.00;;;;;;5030413;28;20750;-71
2022/05/27 09:22:07;;;;;;;12.40;4.60;;;28.30;41.00;;;;;;5012500;28;20069;-69
2022/05/27 09:25:07;;;;;;;21.88;5.85;;;28.20;41.20;;;;;;5030346;28;20069;-70
2022/05/27 09:27:42;;;;;;;17.15;4.57;;;28.10;41.30;;;;;;5028783;28;20183;-70
2022/05/27 09:30:12;;;;;;;19.38;4.63;;;27.90;41.50;;;;;;5030726;28;20099;-69
2022/05/27 09:33:02;;;;;;;21.42;4.65;;;28.00;41.90;;;;;;5017233;28;20085;-69
2022/05/27 09:35:44;;;;;;;22.55;4.72;;;27.90;42.30;;;;;;5045342;28;20166;-69
2022/05/27 09:38:30;;;;;;;16.40;4.30;;;27.80;41.80;;;;;;5030786;28;21397;-70
2022/05/27 09:41:35;;;;;;;25.30;5.55;;;27.80;42.00;;;;;;5032249;28;20075;-69
2022/05/27 09:44:04;;;;;;;17.63;5.63;;;27.90;42.00;;;;;;5032521;28;20083;-69
2022/05/27 09:46:32;;;;;;;22.70;6.22;;;27.90;42.60;;;;;;5031626;28;20081;-70
2022/05/27 09:48:59;;;;;;;23.67;5.13;;;27.80;42.70;;;;;;5028504;28;20171;-70
2022/05/27 09:51:29;;;;;;;18.58;4.50;;;27.70;42.80;;;;;;5031638;28;20065;-69
2022/05/27 09:54:05;;;;;;;20.92;5.75;;;27.60;43.00;;;;;;5047758;28;20077;-69
2022/05/27 09:56:43;;;;;;;28.67;5.53;;;27.40;43.20;;;;;;5032088;28;20080;-70
2022/05/27 09:59:33;;;;;;;19.98;4.82;;;27.30;43.90;;;;;;5032078;28;20585;-71
2022/05/27 10:02:18;;;;;;;20.20;5.47;;;27.20;44.60;;;;;;5047240;28;20089;-70
2022/05/27 10:05:03;;;;;;;24.55;5.18;;;27.20;44.60;;;;;;5029810;28;20108;-71
2022/05/27 10:07:34;;;;;;;22.45;5.38;;;27.20;44.40;;;;;;5028485;28;20118;-70
2022/05/27 10:10:28;;;;;;;19.63;4.75;;;27.10;44.60;;;;;;5031921;28;20659;-70
2022/05/27 10:12:56;;;;;;;23.92;5.35;;;27.20;44.80;;;;;;5030590;28;20527;-70
2022/05/27 10:15:35;;;;;;;31.00;6.82;;;27.10;45.00;;;;;;5031424;28;20127;-70
2022/05/27 10:18:18;;;;;;;28.73;6.68;;;26.90;46.10;;;;;;5070777;22;20119;-69
2022/05/27 10:20:53;;;;;;;31.17;6.03;;;26.80;46.20;;;;;;5045733;28;20155;-70
2022/05/27 10:23:26;;;;;;;33.55;7.72;;;26.80;46.50;;;;;;5046748;28;20084;-69
2022/05/27 10:25:53;;;;;;;39.90;8.15;;;26.90;46.70;;;;;;5048605;28;20156;-69
2022/05/27 10:28:29;;;;;;;36.70;7.72;;;26.80;47.30;;;;;;5064534;28;20086;-71
2022/05/27 10:31:03;;;;;;;38.63;7.85;;;26.60;47.40;;;;;;5050472;28;20068;-71
2022/05/27 10:33:47;;;;;;;38.47;8.75;;;26.60;47.90;;;;;;5048359;28;20072;-68
2022/05/27 10:36:28;;;;;;;34.75;8.82;;;26.60;47.90;;;;;;5064419;28;20449;-71
2022/05/27 10:39:25;;;;;;;34.67;8.90;;;26.60;48.00;;;;;;5048476;28;20213;-68
2022/05/27 10:42:33;;;;;;;44.55;9.73;;;26.40;48.90;;;;;;5033992;28;20080;-69
2022/05/27 10:45:21;;;;;;;46.95;12.30;;;26.40;48.70;;;;;;5029864;28;20526;-71
2022/05/27 10:48:04;;;;;;;49.13;12.82;;;26.30;48.60;;;;;;5046623;28;20084;-70
2022/05/27 10:50:45;;;;;;;43.33;11.98;;;26.50;48.80;;;;;;5047435;28;20076;-70
2022/05/27 10:53:45;;;;;;;45.58;10.63;;;26.30;48.50;;;;;;5046136;28;20079;-71
2022/05/27 10:56:42;;;;;;;42.83;11.25;;;26.20;48.60;;;;;;5063677;28;20130;-68
2022/05/27 11:02:13;;;;;;;34.97;7.70;;;26.10;48.30;;;;;;5048011;28;20817;-70
2022/05/27 11:05:27;;;;;;;37.90;7.22;;;26.30;48.50;;;;;;5046703;28;20094;-72
2022/05/27 11:08:06;;;;;;;29.42;5.82;;;26.20;47.90;;;;;;5013617;28;20167;-69
2022/05/27 11:10:44;;;;;;;30.45;6.53;;;26.10;48.30;;;;;;5009565;28;20560;-69
2022/05/27 11:16:45;;;;;;;23.27;5.80;;;26.10;47.70;;;;;;5009257;28;20102;-69
2022/05/27 11:19:55;;;;;;;25.23;5.50;;;25.90;47.50;;;;;;5008638;28;20176;-69
2022/05/27 11:22:27;;;;;;;27.52;6.07;;;25.80;47.50;;;;;;4942791;28;20569;-69
2022/05/27 11:25:08;;;;;;;21.08;5.72;;;25.70;47.80;;;;;;5010799;28;20552;-71
2022/05/27 11:27:56;;;;;;;78.25;8.07;;;25.80;48.20;;;;;;5008615;28;20098;-70
2022/05/27 11:30:49;;;;;;;56.03;8.43;;;25.90;48.00;;;;;;5011079;28;20078;-70
2022/05/27 11:33:39;;;;;;;34.00;7.35;;;25.90;47.70;;;;;;4991782;28;20100;-71
2022/05/27 11:36:27;;;;;;;34.80;7.20;;;25.90;48.40;;;;;;4991631;28;20108;-71
2022/05/27 11:38:59;;;;;;;25.55;5.35;;;25.90;48.30;;;;;;5008845;28;20085;-70
2022/05/27 11:41:49;;;;;;;22.10;4.65;;;25.80;47.70;;;;;;5001050;28;21611;-70
2022/05/27 11:44:34;;;;;;;28.55;5.40;;;25.70;47.70;;;;;;5044380;28;20134;-70
2022/05/27 11:47:16;;;;;;;26.92;5.68;;;25.70;47.90;;;;;;5026616;28;20069;-70
2022/05/27 11:50:02;;;;;;;28.92;5.30;;;25.70;48.50;;;;;;5042679;28;20089;-70
2022/05/27 11:52:53;;;;;;;26.17;7.13;;;25.70;48.20;;;;;;5042468;28;20124;-71
2022/05/27 11:55:30;;;;;;;31.30;6.75;;;25.60;48.10;;;;;;5027139;28;20128;-71
2022/05/27 11:58:06;;;;;;;25.35;7.10;;;25.60;48.60;;;;;;5042926;28;20078;-71
2022/05/27 12:00:40;;;;;;;38.88;8.45;;;25.60;48.40;;;;;;5043628;28;20096;-71
2022/05/27 12:03:22;;;;;;;35.42;8.35;;;25.40;48.20;;;;;;5010985;28;20092;-69
2022/05/27 12:06:03;;;;;;;32.92;7.82;;;25.50;48.30;;;;;;5027322;28;20076;-68
2022/05/27 12:09:02;;;;;;;45.30;8.25;;;25.40;47.80;;;;;;5041816;28;20176;-70
2022/05/27 12:11:45;;;;;;;32.55;8.15;;;25.40;48.80;;;;;;4989600;28;20089;-71
2022/05/27 12:14:41;;;;;;;33.03;8.63;;;25.50;48.40;;;;;;4992992;28;20084;-71
2022/05/27 12:17:21;;;;;;;22.08;5.93;;;25.50;48.80;;;;;;5005679;28;20578;-71
2022/05/27 12:20:00;;;;;;;25.98;6.45;;;25.40;48.50;;;;;;4992776;28;20077;-71
2022/05/27 12:22:32;;;;;;;21.80;5.82;;;25.30;48.90;;;;;;4991331;28;20086;-69
2022/05/27 12:25:19;;;;;;;26.58;6.47;;;25.20;49.10;;;;;;4976276;28;20165;-70
2022/05/27 12:27:48;;;;;;;33.10;6.68;;;25.10;49.30;;;;;;4985712;28;20078;-69
2022/05/27 12:30:16;;;;;;;20.63;6.10;;;25.00;49.00;;;;;;5010352;28;20079;-70
2022/05/27 12:32:45;;;;;;;30.27;6.40;;;24.90;49.70;;;;;;4992642;28;20157;-68
2022/05/27 12:35:26;;;;;;;27.10;6.63;;;24.90;49.60;;;;;;4993049;28;20108;-69
2022/05/27 12:38:17;;;;;;;24.52;5.68;;;24.80;48.90;;;;;;5009197;28;20092;-68
2022/05/27 12:40:50;;;;;;;33.63;5.97;;;24.70;48.60;;;;;;4992703;28;20101;-69
2022/05/27 12:43:29;;;;;;;25.63;6.88;;;24.70;48.50;;;;;;5009113;28;20600;-69
2022/05/27 12:46:14;;;;;;;36.83;7.00;;;24.70;48.50;;;;;;4992410;28;20141;-69
2022/05/27 12:48:42;;;;;;;41.92;7.70;;;24.80;48.10;;;;;;5007060;28;20091;-70
2022/05/27 12:51:28;;;;;;;29.35;7.32;;;24.80;48.00;;;;;;5030716;28;20099;-70
2022/05/27 12:53:58;;;;;;;41.22;7.35;;;24.80;48.00;;;;;;5030333;28;20089;-70
2022/05/27 13:02:16;;;;;;;49.37;10.50;;;24.70;48.20;;;;;;5030627;28;20076;-70
2022/05/27 13:04:56;;;;;;;59.50;11.18;;;24.80;48.90;;;;;;5044993;28;20473;-70
2022/05/27 13:07:28;;;;;;;56.78;11.38;;;24.80;48.50;;;;;;5030128;28;20080;-70
2022/05/27 13:09:56;;;;;;;55.88;10.15;;;24.80;48.40;;;;;;5028690;28;20547;-70
2022/05/27 13:12:47;;;;;;;58.05;10.82;;;24.80;48.10;;;;;;5030483;28;20073;-71
2022/05/27 13:15:32;;;;;;;51.38;10.77;;;24.80;48.20;;;;;;5029071;28;20101;-71
2022/05/27 13:18:13;;;;;;;48.88;8.98;;;24.80;48.30;;;;;;5027519;28;20131;-71
2022/05/27 13:21:01;;;;;;;56.67;9.68;;;24.80;47.60;;;;;;5044532;28;20069;-70
2022/05/27 13:23:30;;;;;;;60.35;8.43;;;24.90;47.40;;;;;;5029106;28;20065;-69
2022/05/27 13:26:18;;;;;;;48.22;9.27;;;25.00;48.30;;;;;;5027637;28;20187;-70
2022/05/27 13:29:16;;;;;;;57.22;9.10;;;25.00;47.50;;;;;;5027380;28;20540;-71
2022/05/27 13:31:45;;;;;;;57.65;10.10;;;25.00;47.80;;;;;;5029987;28;20496;-69
2022/05/27 13:34:22;;;;;;;67.13;10.50;;;25.00;47.60;;;;;;5030562;28;20100;-68
2022/05/27 13:36:55;;;;;;;60.05;10.15;;;25.00;47.70;;;;;;5029584;28;20089;-70
2022/05/27 13:39:28;;;;;;;68.45;10.57;;;25.10;47.40;;;;;;5044828;28;20077;-71
2022/05/27 13:41:55;;;;;;;50.40;9.73;;;25.00;47.50;;;;;;5028720;28;20073;-71
2022/05/27 13:44:23;;;;;;;58.35;10.18;;;25.00;47.60;;;;;;5028968;28;20514;-69
2022/05/27 13:46:59;;;;;;;53.88;9.27;;;25.20;47.60;;;;;;5029868;28;20095;-70
2022/05/27 13:49:33;;;;;;;42.58;7.78;;;25.40;47.10;;;;;;5028721;28;20076;-70